LEBG

Details ICAO LEBG (RGS)
Name Burgos
Region Spain
Timezone Europe/Madrid (UTC+1.0)
Plans Departing 180
Arriving 114
Stats Elevation 2,961 ft / 903 m (AMSL)
Location 42.356900° -3.614220°
Runways 1
Magnetic Variation 0.401° W
Sunrise 2021-01-20 07:39:26 UTC / 2021-01-20 08:39:26 Local
Sunset 2021-01-20 17:13:47 UTC / 2021-01-20 18:13:47 Local
Advertisement - Login to hide

Runways

ID Width Length Bearing (true/mag) Surface Threshold Overrun Markings Lighting
04 148 ft / 45 m 6,423 ft / 1,958 m 43.31° / 43.71° ASPHALT 0 ft / 0 m 0 ft / 0 m APP CENTERLINE SALS TDZ REIL-OMNI
22 148 ft / 45 m 6,423 ft / 1,958 m 223.32° / 223.72° ASPHALT 0 ft / 0 m 0 ft / 0 m APP CENTERLINE SALS TDZ

Map

Weather


0- 5 10 15 20 25 30 35+ Temperature / °C

Clouds and Precipitation
Forecast for 2021-01-20 12:00 UTC. Updated 30 minutes ago

Ground ~20,000 ft ~40,000 ft Winds

METAR

LEBG 201000Z 18014KT 9999 SCT042 SCT048 BKN059 06/03 Q1006

TAF

TAF LEBG 200800Z 2009/2109 20025KT 9999 SCT025 BKN030 TX09/2015Z TN03/2009Z TEMPO 2009/2021 22025G35KT 4000 RA BKN012 PROB40 TEMPO 2012/2019 22032G44KT

Frequencies

Tower 125.42 MHz AFIS
Approach 118.45 MHz GMC
Warning: Do not use this data for real-world aviation or navigation. No guarantee of current accuracy is given.